Donna Nook, United Kingdom
Current Conditions -  °F | °C
As of 3:50 PM on Tuesday 21 Oct 2014 (Local Time) from EGXS Reporting Station
Few Clouds Few Clouds  
Wind Chill: 11°   Ceiling: Unl
Heat Index: 11°   Visibility: 6mi
Dew Point:   Wind: 26mph
Humidity: 58%   Direction: 280°W
Pressure: 29.59"   Gusts: 41mph
Location:  53.47°N, 0.15°E
Report Text: EGXS 211450Z AUTO 28023G36KT 9999 // FEW045/// 11/03 Q1002
Loading
Personal Weather Stations






























Interactive Weather Map
Tropical Storm Tracking
New forecast layout! Learn more

10-Day Weather Forecast

Advertisements
Track Severe Weather on mobile